sensor_id;sensor_type;location;lat;lon;timestamp;temperature;humidity
59977;DHT22;45837;51.076;3.578;2022-12-18T00:01:37;18.60;47.90
59977;DHT22;45837;51.076;3.578;2022-12-18T00:04:04;18.60;47.90
59977;DHT22;45837;51.076;3.578;2022-12-18T00:06:31;18.60;47.90
59977;DHT22;45837;51.076;3.578;2022-12-18T00:08:59;18.50;47.90
59977;DHT22;45837;51.076;3.578;2022-12-18T00:11:28;18.60;47.90
59977;DHT22;45837;51.076;3.578;2022-12-18T00:13:56;18.60;48.00
59977;DHT22;45837;51.076;3.578;2022-12-18T00:16:24;18.50;47.90
59977;DHT22;45837;51.076;3.578;2022-12-18T00:18:52;18.50;47.90
59977;DHT22;45837;51.076;3.578;2022-12-18T00:21:19;18.50;48.00
59977;DHT22;45837;51.076;3.578;2022-12-18T00:23:46;18.40;47.90
59977;DHT22;45837;51.076;3.578;2022-12-18T00:26:25;18.40;48.00
59977;DHT22;45837;51.076;3.578;2022-12-18T00:28:58;18.40;48.00
59977;DHT22;45837;51.076;3.578;2022-12-18T00:31:25;18.40;48.00
59977;DHT22;45837;51.076;3.578;2022-12-18T00:33:54;18.30;48.10
59977;DHT22;45837;51.076;3.578;2022-12-18T00:36:24;18.40;48.10
59977;DHT22;45837;51.076;3.578;2022-12-18T00:38:53;18.30;48.10
59977;DHT22;45837;51.076;3.578;2022-12-18T00:41:19;18.30;48.10
59977;DHT22;45837;51.076;3.578;2022-12-18T00:44:05;18.40;48.20
59977;DHT22;45837;51.076;3.578;2022-12-18T00:46:31;18.30;48.20
59977;DHT22;45837;51.076;3.578;2022-12-18T00:48:57;18.20;48.30
59977;DHT22;45837;51.076;3.578;2022-12-18T00:51:24;18.20;48.40
59977;DHT22;45837;51.076;3.578;2022-12-18T00:53:51;18.20;48.20
59977;DHT22;45837;51.076;3.578;2022-12-18T00:56:17;18.20;48.20
59977;DHT22;45837;51.076;3.578;2022-12-18T00:58:46;18.20;48.40
59977;DHT22;45837;51.076;3.578;2022-12-18T01:01:12;18.10;48.20
59977;DHT22;45837;51.076;3.578;2022-12-18T01:03:38;18.10;48.10
59977;DHT22;45837;51.076;3.578;2022-12-18T01:06:09;18.10;48.20
59977;DHT22;45837;51.076;3.578;2022-12-18T01:08:37;18.10;48.20
59977;DHT22;45837;51.076;3.578;2022-12-18T01:11:15;18.10;48.10
59977;DHT22;45837;51.076;3.578;2022-12-18T01:13:42;18.10;48.00
59977;DHT22;45837;51.076;3.578;2022-12-18T01:16:10;18.00;48.00
59977;DHT22;45837;51.076;3.578;2022-12-18T01:18:36;18.10;48.10
59977;DHT22;45837;51.076;3.578;2022-12-18T01:21:10;18.10;48.20
59977;DHT22;45837;51.076;3.578;2022-12-18T01:23:37;18.00;48.00
59977;DHT22;45837;51.076;3.578;2022-12-18T01:26:29;18.00;48.10
59977;DHT22;45837;51.076;3.578;2022-12-18T01:28:56;18.40;48.40
59977;DHT22;45837;51.076;3.578;2022-12-18T01:31:28;17.90;48.30
59977;DHT22;45837;51.076;3.578;2022-12-18T01:33:55;17.90;48.10
59977;DHT22;45837;51.076;3.578;2022-12-18T01:36:23;17.90;48.10
59977;DHT22;45837;51.076;3.578;2022-12-18T01:38:50;17.90;48.00
59977;DHT22;45837;51.076;3.578;2022-12-18T01:41:21;17.90;48.60
59977;DHT22;45837;51.076;3.578;2022-12-18T01:43:53;17.90;48.00
59977;DHT22;45837;51.076;3.578;2022-12-18T01:46:22;17.60;48.40
59977;DHT22;45837;51.076;3.578;2022-12-18T01:48:52;17.90;48.00
59977;DHT22;45837;51.076;3.578;2022-12-18T01:51:20;17.90;48.00
59977;DHT22;45837;51.076;3.578;2022-12-18T01:53:47;17.90;48.10
59977;DHT22;45837;51.076;3.578;2022-12-18T01:56:18;17.80;48.50
59977;DHT22;45837;51.076;3.578;2022-12-18T01:58:56;17.70;47.90
59977;DHT22;45837;51.076;3.578;2022-12-18T02:01:25;17.80;48.00
59977;DHT22;45837;51.076;3.578;2022-12-18T02:03:52;17.80;48.00
59977;DHT22;45837;51.076;3.578;2022-12-18T02:09:13;17.80;48.00
59977;DHT22;45837;51.076;3.578;2022-12-18T02:14:21;17.70;48.30
59977;DHT22;45837;51.076;3.578;2022-12-18T02:27:45;18.00;48.20
59977;DHT22;45837;51.076;3.578;2022-12-18T02:30:13;17.60;48.30
59977;DHT22;45837;51.076;3.578;2022-12-18T02:32:43;17.60;48.20
59977;DHT22;45837;51.076;3.578;2022-12-18T02:35:17;17.60;48.20
59977;DHT22;45837;51.076;3.578;2022-12-18T02:37:48;17.60;48.30
59977;DHT22;45837;51.076;3.578;2022-12-18T02:40:15;17.50;48.10
59977;DHT22;45837;51.076;3.578;2022-12-18T02:42:42;17.60;48.30
59977;DHT22;45837;51.076;3.578;2022-12-18T02:45:10;17.50;48.30
59977;DHT22;45837;51.076;3.578;2022-12-18T02:47:39;17.60;48.30
59977;DHT22;45837;51.076;3.578;2022-12-18T03:01:21;17.50;48.20
59977;DHT22;45837;51.076;3.578;2022-12-18T03:04:01;17.50;48.30
59977;DHT22;45837;51.076;3.578;2022-12-18T03:06:37;17.50;48.30
59977;DHT22;45837;51.076;3.578;2022-12-18T03:09:09;17.40;48.20
59977;DHT22;45837;51.076;3.578;2022-12-18T03:11:40;17.40;48.30
59977;DHT22;45837;51.076;3.578;2022-12-18T03:14:27;17.40;48.30
59977;DHT22;45837;51.076;3.578;2022-12-18T03:17:00;17.30;48.30
59977;DHT22;45837;51.076;3.578;2022-12-18T03:19:31;17.40;48.30
59977;DHT22;45837;51.076;3.578;2022-12-18T03:22:01;17.30;48.30
59977;DHT22;45837;51.076;3.578;2022-12-18T03:24:36;17.30;48.30
59977;DHT22;45837;51.076;3.578;2022-12-18T03:27:10;17.30;48.30
59977;DHT22;45837;51.076;3.578;2022-12-18T03:30:05;17.30;48.30
59977;DHT22;45837;51.076;3.578;2022-12-18T03:32:42;17.30;48.30
59977;DHT22;45837;51.076;3.578;2022-12-18T03:35:13;17.30;48.30
59977;DHT22;45837;51.076;3.578;2022-12-18T03:37:41;17.30;48.40
59977;DHT22;45837;51.076;3.578;2022-12-18T03:40:08;17.20;48.40
59977;DHT22;45837;51.076;3.578;2022-12-18T03:42:48;17.20;48.40
59977;DHT22;45837;51.076;3.578;2022-12-18T03:45:35;17.30;48.40
59977;DHT22;45837;51.076;3.578;2022-12-18T03:48:09;17.10;48.30
59977;DHT22;45837;51.076;3.578;2022-12-18T03:50:54;17.20;48.30
59977;DHT22;45837;51.076;3.578;2022-12-18T03:56:14;17.20;48.30
59977;DHT22;45837;51.076;3.578;2022-12-18T03:58:44;17.10;48.30
59977;DHT22;45837;51.076;3.578;2022-12-18T04:01:17;17.20;48.30
59977;DHT22;45837;51.076;3.578;2022-12-18T04:03:49;17.10;48.30
59977;DHT22;45837;51.076;3.578;2022-12-18T04:06:17;17.20;48.40
59977;DHT22;45837;51.076;3.578;2022-12-18T04:08:44;17.20;48.40
59977;DHT22;45837;51.076;3.578;2022-12-18T04:11:15;17.10;48.30
59977;DHT22;45837;51.076;3.578;2022-12-18T04:13:43;17.10;48.40
59977;DHT22;45837;51.076;3.578;2022-12-18T04:16:16;17.10;48.50
59977;DHT22;45837;51.076;3.578;2022-12-18T04:18:44;17.10;48.30
59977;DHT22;45837;51.076;3.578;2022-12-18T04:21:10;17.10;48.40
59977;DHT22;45837;51.076;3.578;2022-12-18T04:23:37;17.10;48.40
59977;DHT22;45837;51.076;3.578;2022-12-18T04:26:03;17.00;48.40
59977;DHT22;45837;51.076;3.578;2022-12-18T04:28:44;17.00;48.40
59977;DHT22;45837;51.076;3.578;2022-12-18T04:31:12;17.00;48.40
59977;DHT22;45837;51.076;3.578;2022-12-18T04:33:39;17.00;48.30
59977;DHT22;45837;51.076;3.578;2022-12-18T04:36:06;17.00;48.40
59977;DHT22;45837;51.076;3.578;2022-12-18T04:38:33;17.00;48.40
59977;DHT22;45837;51.076;3.578;2022-12-18T04:41:06;17.00;48.40
59977;DHT22;45837;51.076;3.578;2022-12-18T04:43:32;16.90;48.40
59977;DHT22;45837;51.076;3.578;2022-12-18T04:46:04;17.00;48.40
59977;DHT22;45837;51.076;3.578;2022-12-18T04:48:31;16.90;48.30
59977;DHT22;45837;51.076;3.578;2022-12-18T04:50:57;16.90;48.30
59977;DHT22;45837;51.076;3.578;2022-12-18T04:53:23;16.90;48.30
59977;DHT22;45837;51.076;3.578;2022-12-18T04:55:49;16.90;48.40
59977;DHT22;45837;51.076;3.578;2022-12-18T04:58:15;16.90;48.40
59977;DHT22;45837;51.076;3.578;2022-12-18T05:00:41;16.90;48.40
59977;DHT22;45837;51.076;3.578;2022-12-18T05:03:07;16.90;48.40
59977;DHT22;45837;51.076;3.578;2022-12-18T05:05:35;16.90;48.40
59977;DHT22;45837;51.076;3.578;2022-12-18T05:08:01;16.90;48.30
59977;DHT22;45837;51.076;3.578;2022-12-18T05:10:27;16.80;49.00
59977;DHT22;45837;51.076;3.578;2022-12-18T05:12:53;16.90;48.40
59977;DHT22;45837;51.076;3.578;2022-12-18T05:15:34;16.80;48.30
59977;DHT22;45837;51.076;3.578;2022-12-18T05:18:01;16.80;48.20
59977;DHT22;45837;51.076;3.578;2022-12-18T05:20:28;16.80;48.20
59977;DHT22;45837;51.076;3.578;2022-12-18T05:22:54;16.30;48.10
59977;DHT22;45837;51.076;3.578;2022-12-18T05:25:21;16.80;48.30
59977;DHT22;45837;51.076;3.578;2022-12-18T05:27:47;16.80;48.30
59977;DHT22;45837;51.076;3.578;2022-12-18T05:30:14;16.80;48.40
59977;DHT22;45837;51.076;3.578;2022-12-18T05:32:40;16.80;48.40
59977;DHT22;45837;51.076;3.578;2022-12-18T05:35:08;16.70;48.20
59977;DHT22;45837;51.076;3.578;2022-12-18T05:37:35;16.70;48.20
59977;DHT22;45837;51.076;3.578;2022-12-18T05:40:03;16.80;48.30
59977;DHT22;45837;51.076;3.578;2022-12-18T05:42:30;16.50;48.20
59977;DHT22;45837;51.076;3.578;2022-12-18T05:44:56;16.70;48.30
59977;DHT22;45837;51.076;3.578;2022-12-18T05:47:22;16.70;48.50
59977;DHT22;45837;51.076;3.578;2022-12-18T05:49:48;16.70;48.40
59977;DHT22;45837;51.076;3.578;2022-12-18T05:52:15;16.70;48.40
59977;DHT22;45837;51.076;3.578;2022-12-18T05:54:41;16.60;48.40
59977;DHT22;45837;51.076;3.578;2022-12-18T05:57:07;16.70;48.40
59977;DHT22;45837;51.076;3.578;2022-12-18T05:59:33;16.70;48.20
59977;DHT22;45837;51.076;3.578;2022-12-18T06:01:59;16.70;48.20
59977;DHT22;45837;51.076;3.578;2022-12-18T06:04:27;16.70;48.10
59977;DHT22;45837;51.076;3.578;2022-12-18T06:06:54;16.70;48.00
59977;DHT22;45837;51.076;3.578;2022-12-18T06:09:20;16.80;48.10
59977;DHT22;45837;51.076;3.578;2022-12-18T06:11:46;16.60;48.00
59977;DHT22;45837;51.076;3.578;2022-12-18T06:14:12;16.60;47.90
59977;DHT22;45837;51.076;3.578;2022-12-18T06:16:38;16.60;47.90
59977;DHT22;45837;51.076;3.578;2022-12-18T06:19:05;16.60;47.90
59977;DHT22;45837;51.076;3.578;2022-12-18T06:21:32;16.50;47.70
59977;DHT22;45837;51.076;3.578;2022-12-18T06:23:59;16.60;47.70
59977;DHT22;45837;51.076;3.578;2022-12-18T06:26:25;16.50;47.60
59977;DHT22;45837;51.076;3.578;2022-12-18T06:28:51;16.50;47.70
59977;DHT22;45837;51.076;3.578;2022-12-18T06:31:17;16.50;47.60
59977;DHT22;45837;51.076;3.578;2022-12-18T06:33:43;16.50;47.60
59977;DHT22;45837;51.076;3.578;2022-12-18T06:36:11;16.50;47.50
59977;DHT22;45837;51.076;3.578;2022-12-18T06:38:39;16.50;47.40
59977;DHT22;45837;51.076;3.578;2022-12-18T06:41:17;16.50;47.20
59977;DHT22;45837;51.076;3.578;2022-12-18T06:43:43;16.50;47.20
59977;DHT22;45837;51.076;3.578;2022-12-18T06:46:09;16.50;47.10
59977;DHT22;45837;51.076;3.578;2022-12-18T06:48:35;16.40;47.00
59977;DHT22;45837;51.076;3.578;2022-12-18T06:51:01;16.40;47.10
59977;DHT22;45837;51.076;3.578;2022-12-18T06:53:28;16.40;46.80
59977;DHT22;45837;51.076;3.578;2022-12-18T06:56:05;16.40;46.80
59977;DHT22;45837;51.076;3.578;2022-12-18T06:58:31;16.40;46.70
59977;DHT22;45837;51.076;3.578;2022-12-18T07:01:01;16.40;46.60
59977;DHT22;45837;51.076;3.578;2022-12-18T07:03:27;16.40;47.50
59977;DHT22;45837;51.076;3.578;2022-12-18T07:05:53;16.40;48.70
59977;DHT22;45837;51.076;3.578;2022-12-18T07:08:19;16.40;49.60
59977;DHT22;45837;51.076;3.578;2022-12-18T07:10:45;16.40;49.80
59977;DHT22;45837;51.076;3.578;2022-12-18T07:13:11;16.50;49.80
59977;DHT22;45837;51.076;3.578;2022-12-18T07:15:36;16.50;50.20
59977;DHT22;45837;51.076;3.578;2022-12-18T07:18:02;16.60;50.40
59977;DHT22;45837;51.076;3.578;2022-12-18T07:20:29;16.70;50.10
59977;DHT22;45837;51.076;3.578;2022-12-18T07:22:54;16.80;50.20
59977;DHT22;45837;51.076;3.578;2022-12-18T07:25:20;16.90;49.90
59977;DHT22;45837;51.076;3.578;2022-12-18T07:27:46;17.00;50.00
59977;DHT22;45837;51.076;3.578;2022-12-18T07:30:12;17.10;50.10
59977;DHT22;45837;51.076;3.578;2022-12-18T07:32:38;17.20;50.10
59977;DHT22;45837;51.076;3.578;2022-12-18T07:35:04;17.20;50.20
59977;DHT22;45837;51.076;3.578;2022-12-18T07:37:30;17.30;50.30
59977;DHT22;45837;51.076;3.578;2022-12-18T07:39:55;17.40;50.60
59977;DHT22;45837;51.076;3.578;2022-12-18T07:42:21;17.50;50.90
59977;DHT22;45837;51.076;3.578;2022-12-18T07:44:56;17.70;50.40
59977;DHT22;45837;51.076;3.578;2022-12-18T07:47:22;17.80;49.90
59977;DHT22;45837;51.076;3.578;2022-12-18T07:49:47;17.80;50.30
59977;DHT22;45837;51.076;3.578;2022-12-18T07:52:13;17.90;50.70
59977;DHT22;45837;51.076;3.578;2022-12-18T07:54:39;17.90;49.90
59977;DHT22;45837;51.076;3.578;2022-12-18T07:57:06;18.00;49.50
59977;DHT22;45837;51.076;3.578;2022-12-18T07:59:32;18.10;49.50
59977;DHT22;45837;51.076;3.578;2022-12-18T08:01:58;18.30;49.40
59977;DHT22;45837;51.076;3.578;2022-12-18T08:04:24;18.40;49.10
59977;DHT22;45837;51.076;3.578;2022-12-18T08:06:51;18.50;49.00
59977;DHT22;45837;51.076;3.578;2022-12-18T08:09:17;18.60;48.80
59977;DHT22;45837;51.076;3.578;2022-12-18T08:11:43;18.70;48.50
59977;DHT22;45837;51.076;3.578;2022-12-18T08:14:08;18.70;48.40
59977;DHT22;45837;51.076;3.578;2022-12-18T08:16:35;18.80;48.40
59977;DHT22;45837;51.076;3.578;2022-12-18T08:19:01;18.80;48.70
59977;DHT22;45837;51.076;3.578;2022-12-18T08:21:29;18.80;49.10
59977;DHT22;45837;51.076;3.578;2022-12-18T08:23:59;18.80;48.70
59977;DHT22;45837;51.076;3.578;2022-12-18T08:26:28;18.90;48.40
59977;DHT22;45837;51.076;3.578;2022-12-18T08:28:55;18.90;48.70
59977;DHT22;45837;51.076;3.578;2022-12-18T08:31:22;19.00;49.10
59977;DHT22;45837;51.076;3.578;2022-12-18T08:33:50;19.00;48.50
59977;DHT22;45837;51.076;3.578;2022-12-18T08:36:16;19.10;47.90
59977;DHT22;45837;51.076;3.578;2022-12-18T08:38:42;19.10;47.90
59977;DHT22;45837;51.076;3.578;2022-12-18T08:41:11;19.20;47.70
59977;DHT22;45837;51.076;3.578;2022-12-18T08:43:37;19.20;47.50
59977;DHT22;45837;51.076;3.578;2022-12-18T08:46:23;19.30;47.40
59977;DHT22;45837;51.076;3.578;2022-12-18T08:48:54;19.40;47.30
59977;DHT22;45837;51.076;3.578;2022-12-18T08:51:21;19.40;47.20
59977;DHT22;45837;51.076;3.578;2022-12-18T08:53:47;19.50;47.20
59977;DHT22;45837;51.076;3.578;2022-12-18T08:56:13;19.50;47.30
59977;DHT22;45837;51.076;3.578;2022-12-18T08:58:41;19.50;47.30
59977;DHT22;45837;51.076;3.578;2022-12-18T09:01:09;19.60;47.30
59977;DHT22;45837;51.076;3.578;2022-12-18T09:03:36;19.70;47.20
59977;DHT22;45837;51.076;3.578;2022-12-18T09:06:02;19.70;47.10
59977;DHT22;45837;51.076;3.578;2022-12-18T09:08:28;19.70;47.00
59977;DHT22;45837;51.076;3.578;2022-12-18T09:10:54;19.80;47.70
59977;DHT22;45837;51.076;3.578;2022-12-18T09:13:20;19.80;46.90
59977;DHT22;45837;51.076;3.578;2022-12-18T09:15:49;19.80;47.10
59977;DHT22;45837;51.076;3.578;2022-12-18T09:18:16;19.80;47.00
59977;DHT22;45837;51.076;3.578;2022-12-18T09:20:43;19.90;47.10
59977;DHT22;45837;51.076;3.578;2022-12-18T09:23:09;19.90;47.00
59977;DHT22;45837;51.076;3.578;2022-12-18T09:25:35;19.90;46.80
59977;DHT22;45837;51.076;3.578;2022-12-18T09:28:04;20.00;46.60
59977;DHT22;45837;51.076;3.578;2022-12-18T09:30:30;20.00;46.60
59977;DHT22;45837;51.076;3.578;2022-12-18T09:32:59;20.10;46.60
59977;DHT22;45837;51.076;3.578;2022-12-18T09:35:25;20.10;47.00
59977;DHT22;45837;51.076;3.578;2022-12-18T09:37:53;20.10;46.90
59977;DHT22;45837;51.076;3.578;2022-12-18T09:40:25;20.10;47.00
59977;DHT22;45837;51.076;3.578;2022-12-18T09:42:55;20.20;46.90
59977;DHT22;45837;51.076;3.578;2022-12-18T09:45:23;20.20;46.80
59977;DHT22;45837;51.076;3.578;2022-12-18T09:47:51;20.20;47.00
59977;DHT22;45837;51.076;3.578;2022-12-18T09:50:31;20.20;47.10
59977;DHT22;45837;51.076;3.578;2022-12-18T09:53:02;20.20;47.20
59977;DHT22;45837;51.076;3.578;2022-12-18T09:58:02;20.30;47.80
59977;DHT22;45837;51.076;3.578;2022-12-18T10:00:31;20.20;48.20
59977;DHT22;45837;51.076;3.578;2022-12-18T10:03:11;20.20;48.00
59977;DHT22;45837;51.076;3.578;2022-12-18T10:19:54;20.50;46.80
59977;DHT22;45837;51.076;3.578;2022-12-18T10:26:11;20.50;44.60
59977;DHT22;45837;51.076;3.578;2022-12-18T10:28:19;20.60;44.20
59977;DHT22;45837;51.076;3.578;2022-12-18T10:30:46;20.50;43.80
59977;DHT22;45837;51.076;3.578;2022-12-18T10:33:18;20.50;43.20
59977;DHT22;45837;51.076;3.578;2022-12-18T10:35:45;20.50;43.20
59977;DHT22;45837;51.076;3.578;2022-12-18T10:41:44;20.50;41.90
59977;DHT22;45837;51.076;3.578;2022-12-18T10:44:23;20.50;41.40
59977;DHT22;45837;51.076;3.578;2022-12-18T10:46:54;20.50;41.20
59977;DHT22;45837;51.076;3.578;2022-12-18T10:49:27;20.50;40.80
59977;DHT22;45837;51.076;3.578;2022-12-18T10:52:20;20.50;40.40
59977;DHT22;45837;51.076;3.578;2022-12-18T10:54:59;20.50;40.50
59977;DHT22;45837;51.076;3.578;2022-12-18T10:57:39;20.50;40.70
59977;DHT22;45837;51.076;3.578;2022-12-18T11:00:26;20.50;40.40
59977;DHT22;45837;51.076;3.578;2022-12-18T11:02:54;20.50;40.70
59977;DHT22;45837;51.076;3.578;2022-12-18T11:05:30;20.50;43.20
59977;DHT22;45837;51.076;3.578;2022-12-18T11:07:57;20.60;44.20
59977;DHT22;45837;51.076;3.578;2022-12-18T11:10:32;20.70;44.40
59977;DHT22;45837;51.076;3.578;2022-12-18T11:13:19;20.70;45.10
59977;DHT22;45837;51.076;3.578;2022-12-18T11:15:47;20.80;45.80
59977;DHT22;45837;51.076;3.578;2022-12-18T11:18:36;20.90;45.60
59977;DHT22;45837;51.076;3.578;2022-12-18T11:21:10;20.90;45.60
59977;DHT22;45837;51.076;3.578;2022-12-18T11:23:49;20.90;45.50
59977;DHT22;45837;51.076;3.578;2022-12-18T11:26:15;21.00;46.10
59977;DHT22;45837;51.076;3.578;2022-12-18T11:28:51;21.00;45.70
59977;DHT22;45837;51.076;3.578;2022-12-18T11:31:21;21.00;45.30
59977;DHT22;45837;51.076;3.578;2022-12-18T11:34:14;21.00;44.80
59977;DHT22;45837;51.076;3.578;2022-12-18T11:36:47;21.00;43.90
59977;DHT22;45837;51.076;3.578;2022-12-18T11:39:20;20.90;43.40
59977;DHT22;45837;51.076;3.578;2022-12-18T11:41:54;20.90;43.60
59977;DHT22;45837;51.076;3.578;2022-12-18T11:50:18;20.80;42.90
59977;DHT22;45837;51.076;3.578;2022-12-18T11:52:44;20.80;42.80
59977;DHT22;45837;51.076;3.578;2022-12-18T11:55:13;20.70;43.40
59977;DHT22;45837;51.076;3.578;2022-12-18T11:58:12;20.70;44.00
59977;DHT22;45837;51.076;3.578;2022-12-18T12:06:30;20.50;46.00
59977;DHT22;45837;51.076;3.578;2022-12-18T12:09:08;20.40;46.10
59977;DHT22;45837;51.076;3.578;2022-12-18T12:12:08;20.40;46.10
59977;DHT22;45837;51.076;3.578;2022-12-18T12:14:46;20.30;46.50
59977;DHT22;45837;51.076;3.578;2022-12-18T12:19:53;20.20;46.20
59977;DHT22;45837;51.076;3.578;2022-12-18T12:30:49;19.90;45.80
59977;DHT22;45837;51.076;3.578;2022-12-18T12:39:07;19.70;45.60
59977;DHT22;45837;51.076;3.578;2022-12-18T12:41:34;19.60;45.20
59977;DHT22;45837;51.076;3.578;2022-12-18T12:44:50;19.60;45.30
59977;DHT22;45837;51.076;3.578;2022-12-18T12:47:36;19.50;45.60
59977;DHT22;45837;51.076;3.578;2022-12-18T12:50:06;19.50;46.20
59977;DHT22;45837;51.076;3.578;2022-12-18T12:52:45;19.40;46.30
59977;DHT22;45837;51.076;3.578;2022-12-18T12:55:21;19.50;46.60
59977;DHT22;45837;51.076;3.578;2022-12-18T12:58:10;19.10;46.40
59977;DHT22;45837;51.076;3.578;2022-12-18T13:00:55;19.50;46.90
59977;DHT22;45837;51.076;3.578;2022-12-18T13:03:43;19.50;47.10
59977;DHT22;45837;51.076;3.578;2022-12-18T13:06:28;19.60;47.10
59977;DHT22;45837;51.076;3.578;2022-12-18T13:09:00;19.30;47.20
59977;DHT22;45837;51.076;3.578;2022-12-18T13:11:44;19.70;47.40
59977;DHT22;45837;51.076;3.578;2022-12-18T13:14:37;19.80;47.40
59977;DHT22;45837;51.076;3.578;2022-12-18T13:20:09;20.10;47.30
59977;DHT22;45837;51.076;3.578;2022-12-18T13:22:39;20.10;47.70
59977;DHT22;45837;51.076;3.578;2022-12-18T13:25:35;20.10;48.00
59977;DHT22;45837;51.076;3.578;2022-12-18T13:38:24;20.40;47.60
59977;DHT22;45837;51.076;3.578;2022-12-18T13:41:00;20.40;47.30
59977;DHT22;45837;51.076;3.578;2022-12-18T13:43:33;20.40;46.60
59977;DHT22;45837;51.076;3.578;2022-12-18T13:48:28;20.40;45.60
59977;DHT22;45837;51.076;3.578;2022-12-18T13:51:07;20.40;45.10
59977;DHT22;45837;51.076;3.578;2022-12-18T13:56:21;20.30;45.20
59977;DHT22;45837;51.076;3.578;2022-12-18T13:59:17;20.30;44.20
59977;DHT22;45837;51.076;3.578;2022-12-18T14:01:58;20.20;44.10
59977;DHT22;45837;51.076;3.578;2022-12-18T14:04:35;20.10;43.80
59977;DHT22;45837;51.076;3.578;2022-12-18T14:07:16;20.10;43.40
59977;DHT22;45837;51.076;3.578;2022-12-18T14:09:49;19.80;43.10
59977;DHT22;45837;51.076;3.578;2022-12-18T14:12:25;20.00;43.00
59977;DHT22;45837;51.076;3.578;2022-12-18T14:15:43;19.90;42.80
59977;DHT22;45837;51.076;3.578;2022-12-18T14:18:26;19.90;42.70
59977;DHT22;45837;51.076;3.578;2022-12-18T14:20:55;19.80;42.60
59977;DHT22;45837;51.076;3.578;2022-12-18T14:23:40;19.70;42.60
59977;DHT22;45837;51.076;3.578;2022-12-18T14:26:42;19.70;42.40
59977;DHT22;45837;51.076;3.578;2022-12-18T14:29:26;19.60;42.40
59977;DHT22;45837;51.076;3.578;2022-12-18T14:32:13;19.50;42.30
59977;DHT22;45837;51.076;3.578;2022-12-18T14:34:43;19.50;42.20
59977;DHT22;45837;51.076;3.578;2022-12-18T14:37:11;19.40;42.30
59977;DHT22;45837;51.076;3.578;2022-12-18T14:39:38;19.30;42.40
59977;DHT22;45837;51.076;3.578;2022-12-18T14:42:04;19.30;43.00
59977;DHT22;45837;51.076;3.578;2022-12-18T14:44:30;19.30;43.30
59977;DHT22;45837;51.076;3.578;2022-12-18T14:46:56;19.30;43.80
59977;DHT22;45837;51.076;3.578;2022-12-18T14:49:34;19.30;44.00
59977;DHT22;45837;51.076;3.578;2022-12-18T14:52:05;19.30;44.10
59977;DHT22;45837;51.076;3.578;2022-12-18T14:54:33;19.30;44.00
59977;DHT22;45837;51.076;3.578;2022-12-18T14:57:21;19.40;44.20
59977;DHT22;45837;51.076;3.578;2022-12-18T14:59:48;19.60;44.40
59977;DHT22;45837;51.076;3.578;2022-12-18T15:02:25;19.60;44.70
59977;DHT22;45837;51.076;3.578;2022-12-18T15:05:19;19.70;44.70
59977;DHT22;45837;51.076;3.578;2022-12-18T15:07:48;19.80;45.00
59977;DHT22;45837;51.076;3.578;2022-12-18T15:18:11;20.20;44.90
59977;DHT22;45837;51.076;3.578;2022-12-18T15:20:49;20.20;45.00
59977;DHT22;45837;51.076;3.578;2022-12-18T15:28:45;20.30;45.10
59977;DHT22;45837;51.076;3.578;2022-12-18T15:33:40;20.50;45.40
59977;DHT22;45837;51.076;3.578;2022-12-18T15:36:12;20.40;45.40
59977;DHT22;45837;51.076;3.578;2022-12-18T15:38:39;20.50;45.60
59977;DHT22;45837;51.076;3.578;2022-12-18T15:41:05;20.60;45.70
59977;DHT22;45837;51.076;3.578;2022-12-18T15:43:31;20.70;45.90
59977;DHT22;45837;51.076;3.578;2022-12-18T15:46:02;20.60;46.10
59977;DHT22;45837;51.076;3.578;2022-12-18T15:48:28;20.70;46.10
59977;DHT22;45837;51.076;3.578;2022-12-18T15:50:56;20.80;46.20
59977;DHT22;45837;51.076;3.578;2022-12-18T15:53:28;20.80;46.50
59977;DHT22;45837;51.076;3.578;2022-12-18T15:55:55;20.80;46.70
59977;DHT22;45837;51.076;3.578;2022-12-18T15:58:39;20.80;46.90
59977;DHT22;45837;51.076;3.578;2022-12-18T16:01:05;20.70;46.90
59977;DHT22;45837;51.076;3.578;2022-12-18T16:03:33;20.80;46.60
59977;DHT22;45837;51.076;3.578;2022-12-18T16:05:59;20.80;47.40
59977;DHT22;45837;51.076;3.578;2022-12-18T16:08:30;20.80;47.60
59977;DHT22;45837;51.076;3.578;2022-12-18T16:10:57;20.70;47.70
59977;DHT22;45837;51.076;3.578;2022-12-18T16:13:24;20.80;47.50
59977;DHT22;45837;51.076;3.578;2022-12-18T16:15:50;20.80;47.90
59977;DHT22;45837;51.076;3.578;2022-12-18T16:18:16;20.70;47.60
59977;DHT22;45837;51.076;3.578;2022-12-18T16:20:42;20.60;48.00
59977;DHT22;45837;51.076;3.578;2022-12-18T16:23:08;20.60;48.70
59977;DHT22;45837;51.076;3.578;2022-12-18T16:25:34;20.50;48.50
59977;DHT22;45837;51.076;3.578;2022-12-18T16:28:00;20.70;48.70
59977;DHT22;45837;51.076;3.578;2022-12-18T16:30:28;20.70;49.40
59977;DHT22;45837;51.076;3.578;2022-12-18T16:32:57;20.70;48.90
59977;DHT22;45837;51.076;3.578;2022-12-18T16:35:24;20.70;49.30
59977;DHT22;45837;51.076;3.578;2022-12-18T16:37:50;20.60;49.40
59977;DHT22;45837;51.076;3.578;2022-12-18T16:40:17;20.70;49.50
59977;DHT22;45837;51.076;3.578;2022-12-18T16:42:45;20.70;49.30
59977;DHT22;45837;51.076;3.578;2022-12-18T16:45:16;20.60;49.70
59977;DHT22;45837;51.076;3.578;2022-12-18T16:47:43;20.60;49.70
59977;DHT22;45837;51.076;3.578;2022-12-18T16:50:10;20.60;49.70
59977;DHT22;45837;51.076;3.578;2022-12-18T16:52:36;20.70;49.60
59977;DHT22;45837;51.076;3.578;2022-12-18T16:55:03;20.70;49.60
59977;DHT22;45837;51.076;3.578;2022-12-18T16:57:29;20.80;49.60
59977;DHT22;45837;51.076;3.578;2022-12-18T16:59:55;20.80;49.60
59977;DHT22;45837;51.076;3.578;2022-12-18T17:02:24;20.80;49.60
59977;DHT22;45837;51.076;3.578;2022-12-18T17:04:53;20.80;49.40
59977;DHT22;45837;51.076;3.578;2022-12-18T17:07:19;20.80;48.90
59977;DHT22;45837;51.076;3.578;2022-12-18T17:09:46;20.80;48.40
59977;DHT22;45837;51.076;3.578;2022-12-18T17:12:12;20.90;48.30
59977;DHT22;45837;51.076;3.578;2022-12-18T17:14:38;20.90;48.20
59977;DHT22;45837;51.076;3.578;2022-12-18T17:17:04;20.90;48.20
59977;DHT22;45837;51.076;3.578;2022-12-18T17:19:30;20.80;48.20
59977;DHT22;45837;51.076;3.578;2022-12-18T17:21:56;20.80;48.10
59977;DHT22;45837;51.076;3.578;2022-12-18T17:24:22;20.80;48.10
59977;DHT22;45837;51.076;3.578;2022-12-18T17:26:48;20.80;48.00
59977;DHT22;45837;51.076;3.578;2022-12-18T17:29:16;20.80;48.00
59977;DHT22;45837;51.076;3.578;2022-12-18T17:31:43;20.80;47.90
59977;DHT22;45837;51.076;3.578;2022-12-18T17:34:10;20.80;48.10
59977;DHT22;45837;51.076;3.578;2022-12-18T17:36:36;20.80;47.90
59977;DHT22;45837;51.076;3.578;2022-12-18T17:39:04;20.80;47.90
59977;DHT22;45837;51.076;3.578;2022-12-18T17:41:30;20.90;47.80
59977;DHT22;45837;51.076;3.578;2022-12-18T17:43:59;20.90;47.90
59977;DHT22;45837;51.076;3.578;2022-12-18T17:46:27;20.90;47.80
59977;DHT22;45837;51.076;3.578;2022-12-18T17:48:58;20.90;49.00